Time;durP1;ratioP1;P1;durP2;ratioP2;P2;SDS_P1;SDS_P2;PMS_P1;PMS_P2;Temp;Humidity;BMP_temperature;BMP_pressure;BME280_temperature;BME280_humidity;BME280_pressure;Samples;Min_cycle;Max_cycle;Signal;HPM_P1;HPM_P2
2021/10/10 00:01:06;;;;;;;26.58;19.95;;;10.00;92.50;;;;;;6211641;23;20064;-92
2021/10/10 00:03:40;;;;;;;27.10;20.20;;;10.00;92.50;;;;;;6237767;23;19997;-92
2021/10/10 00:06:19;;;;;;;25.23;20.60;;;10.00;92.50;;;;;;6212031;23;20007;-93
2021/10/10 00:08:58;;;;;;;;;;;;;;;;;;;;;
2021/10/10 00:12:23;;;;;;;;;;;;;;;;;;;;;
2021/10/10 00:15:07;;;;;;;;;;;;;;;;;;;;;
2021/10/10 00:17:49;;;;;;;;;;;;;;;;;;;;;
2021/10/10 00:20:28;;;;;;;23.67;19.90;;;9.80;92.70;;;;;;6237832;23;20004;-92
2021/10/10 00:23:22;;;;;;;24.42;19.33;;;9.80;92.50;;;;;;6188581;23;20008;-92
2021/10/10 00:26:07;;;;;;;;;;;;;;;;;;;;;
2021/10/10 00:28:43;;;;;;;26.85;20.10;;;9.70;92.40;;;;;;6214531;23;20417;-90
2021/10/10 00:31:26;;;;;;;26.70;20.55;;;9.70;92.40;;;;;;6157659;23;20087;-92
2021/10/10 00:34:03;;;;;;;26.65;21.00;;;9.70;92.30;;;;;;6210977;23;20060;-91
2021/10/10 00:36:41;;;;;;;;;;;;;;;;;;;;;
2021/10/10 00:39:13;;;;;;;26.35;19.80;;;9.60;92.40;;;;;;6215067;23;20005;-94
2021/10/10 00:41:41;;;;;;;26.45;19.13;;;9.60;92.30;;;;;;6210215;23;20027;-93
2021/10/10 00:44:26;;;;;;;26.45;19.25;;;9.50;92.30;;;;;;6184585;23;20062;-91
2021/10/10 00:50:15;;;;;;;24.73;20.08;;;9.50;92.30;;;;;;6238526;23;20019;-92
2021/10/10 00:53:16;;;;;;;28.30;19.98;;;9.50;92.30;;;;;;6164115;23;20015;-91
2021/10/10 00:55:55;;;;;;;25.48;19.20;;;9.40;92.30;;;;;;6233020;23;20005;-90
2021/10/10 00:58:46;;;;;;;27.60;20.55;;;9.50;92.40;;;;;;6210450;23;20087;-91
2021/10/10 01:01:22;;;;;;;26.50;20.17;;;9.50;92.50;;;;;;6207415;23;20007;-90
2021/10/10 01:04:00;;;;;;;26.20;19.58;;;9.50;92.50;;;;;;6229522;23;20008;-92
2021/10/10 01:06:36;;;;;;;28.80;20.73;;;9.50;92.50;;;;;;6209445;23;20004;-91
2021/10/10 01:09:14;;;;;;;25.80;20.30;;;9.40;92.50;;;;;;6214842;23;20048;-90
2021/10/10 01:11:46;;;;;;;27.02;20.05;;;9.40;92.50;;;;;;6234604;23;20004;-90
2021/10/10 01:14:12;;;;;;;26.92;20.23;;;9.40;92.40;;;;;;6206107;23;20007;-92
2021/10/10 01:16:41;;;;;;;27.83;20.75;;;9.40;92.40;;;;;;6206582;23;20434;-93
2021/10/10 01:19:16;;;;;;;26.30;19.75;;;9.30;92.40;;;;;;6184309;23;20012;-92
2021/10/10 01:22:03;;;;;;;25.08;19.55;;;9.30;92.40;;;;;;6237308;23;20068;-94
2021/10/10 01:24:31;;;;;;;26.63;19.60;;;9.30;92.30;;;;;;6213473;23;19989;-92
2021/10/10 01:26:57;;;;;;;27.52;20.33;;;9.20;92.30;;;;;;6216719;23;19993;-91
2021/10/10 01:29:28;;;;;;;23.98;19.10;;;9.20;92.30;;;;;;6217148;23;20065;-91
2021/10/10 01:31:56;;;;;;;28.38;20.85;;;9.20;92.30;;;;;;6192598;23;20007;-90
2021/10/10 01:34:24;;;;;;;28.33;19.98;;;9.10;92.20;;;;;;6190672;23;20015;-92
2021/10/10 01:36:52;;;;;;;24.10;19.92;;;9.10;92.30;;;;;;6209272;23;20115;-92
2021/10/10 01:39:33;;;;;;;26.40;20.63;;;9.00;92.30;;;;;;6207254;23;20016;-92
2021/10/10 01:42:04;;;;;;;28.33;19.85;;;9.00;92.50;;;;;;6167037;23;20000;-91
2021/10/10 01:44:30;;;;;;;;;;;9.00;92.30;;;;;;6214543;23;20004;-91
2021/10/10 01:47:01;;;;;;;26.33;19.40;;;8.90;92.20;;;;;;6213475;23;19907;-92
2021/10/10 01:49:35;;;;;;;27.92;20.08;;;8.90;92.30;;;;;;6209650;23;20019;-92
2021/10/10 01:52:06;;;;;;;27.05;21.02;;;8.80;92.30;;;;;;6209548;23;20079;-93
2021/10/10 01:54:38;;;;;;;24.65;19.17;;;8.80;92.30;;;;;;6210438;23;19997;-93
2021/10/10 01:57:03;;;;;;;;;;;8.80;92.30;;;;;;6210882;23;19985;-91
2021/10/10 01:59:47;;;;;;;26.05;20.05;;;8.80;92.30;;;;;;6209264;23;19900;-93
2021/10/10 02:02:25;;;;;;;26.73;19.35;;;8.80;92.30;;;;;;6212215;23;20021;-92
2021/10/10 02:04:54;;;;;;;26.67;18.90;;;8.80;92.30;;;;;;6212866;23;20010;-93
2021/10/10 02:07:29;;;;;;;25.85;19.55;;;8.80;92.40;;;;;;6213050;23;20009;-92
2021/10/10 02:10:00;;;;;;;25.50;18.83;;;8.70;92.30;;;;;;6210354;23;20012;-91
2021/10/10 02:12:26;;;;;;;24.35;18.85;;;8.70;92.30;;;;;;6210841;23;19981;-91
2021/10/10 02:14:52;;;;;;;25.67;18.88;;;8.70;92.30;;;;;;6209675;23;20060;-91
2021/10/10 02:17:23;;;;;;;23.20;18.65;;;8.70;92.40;;;;;;6213674;23;19993;-91
2021/10/10 02:19:52;;;;;;;;;;;8.60;92.30;;;;;;6216629;23;20096;-90
2021/10/10 02:22:20;;;;;;;28.27;19.77;;;8.60;92.30;;;;;;6239145;23;19903;-92
2021/10/10 02:24:49;;;;;;;31.00;19.60;;;8.60;92.40;;;;;;6184272;23;20005;-92
2021/10/10 02:27:23;;;;;;;24.42;19.38;;;8.60;92.40;;;;;;6180101;23;20062;-92
2021/10/10 02:29:49;;;;;;;24.45;18.88;;;8.60;92.40;;;;;;6180240;23;20020;-91
2021/10/10 02:32:20;;;;;;;24.80;19.20;;;8.60;92.40;;;;;;6205036;23;20060;-91
2021/10/10 02:34:58;;;;;;;;;;;;;;;;;;;;;
2021/10/10 02:37:52;;;;;;;26.92;19.30;;;8.60;92.40;;;;;;6211906;23;20008;-94
2021/10/10 02:40:20;;;;;;;25.10;19.15;;;8.50;92.40;;;;;;6209952;23;20024;-93
2021/10/10 02:42:56;;;;;;;27.67;19.40;;;8.50;92.40;;;;;;6209653;23;20043;-93
2021/10/10 02:45:34;;;;;;;29.33;20.33;;;8.50;92.40;;;;;;6185323;23;20070;-93
2021/10/10 02:48:07;;;;;;;26.85;20.08;;;8.50;92.40;;;;;;6210311;23;20000;-91
2021/10/10 02:51:02;;;;;;;27.02;20.05;;;8.50;92.50;;;;;;6185866;23;20016;-93
2021/10/10 02:53:47;;;;;;;25.30;19.52;;;8.50;92.50;;;;;;6212184;23;20004;-91
2021/10/10 02:56:16;;;;;;;29.50;20.67;;;8.50;92.50;;;;;;6191394;23;20004;-93
2021/10/10 02:58:52;;;;;;;;;;;;;;;;;;;;;
2021/10/10 03:01:27;;;;;;;29.40;21.45;;;8.40;92.50;;;;;;6239688;23;19989;-94
2021/10/10 03:03:55;;;;;;;30.15;21.33;;;8.40;92.40;;;;;;6218464;23;19989;-91
2021/10/10 03:06:24;;;;;;;31.40;21.90;;;8.40;92.40;;;;;;6218777;23;19984;-92
2021/10/10 03:08:50;;;;;;;29.20;20.25;;;8.40;92.40;;;;;;6218365;23;20047;-92
2021/10/10 03:11:35;;;;;;;28.73;21.70;;;8.40;92.40;;;;;;6193498;23;19985;-94
2021/10/10 03:14:04;;;;;;;27.52;21.70;;;8.30;92.40;;;;;;6167228;23;20001;-91
2021/10/10 03:16:30;;;;;;;30.48;20.52;;;8.30;92.40;;;;;;6215071;23;20015;-91
2021/10/10 03:18:58;;;;;;;34.35;21.33;;;8.30;92.40;;;;;;6215147;23;20011;-90
2021/10/10 03:21:24;;;;;;;27.73;20.98;;;8.30;92.40;;;;;;6215300;23;20001;-92
2021/10/10 03:23:56;;;;;;;30.05;19.77;;;8.30;92.40;;;;;;6189616;23;20001;-92
2021/10/10 03:26:27;;;;;;;26.85;19.67;;;8.30;92.60;;;;;;6212829;23;20001;-93
2021/10/10 03:28:58;;;;;;;25.27;19.33;;;8.20;92.30;;;;;;6208956;23;20015;-91
2021/10/10 03:31:24;;;;;;;28.23;20.02;;;8.20;92.30;;;;;;6202890;23;19997;-92
2021/10/10 03:33:50;;;;;;;26.63;19.85;;;8.20;92.30;;;;;;6187267;23;20028;-90
2021/10/10 03:36:24;;;;;;;28.13;20.25;;;8.10;92.30;;;;;;6190792;23;20016;-92
2021/10/10 03:38:50;;;;;;;25.88;19.70;;;8.10;92.30;;;;;;6188266;23;20009;-91
2021/10/10 03:41:16;;;;;;;26.83;19.10;;;8.10;92.30;;;;;;6189549;23;20001;-92
2021/10/10 03:43:44;;;;;;;26.95;19.63;;;8.10;92.30;;;;;;6215631;23;20015;-93
2021/10/10 03:46:23;;;;;;;;;;;;;;;;;;;;;
2021/10/10 03:48:56;;;;;;;23.75;17.75;;;8.10;92.20;;;;;;6240418;23;19997;-89
2021/10/10 03:51:51;;;;;;;23.20;17.17;;;8.00;92.20;;;;;;6188149;23;20004;-93
2021/10/10 03:57:08;;;;;;;24.13;17.25;;;7.90;92.20;;;;;;6224617;23;20035;-91
2021/10/10 03:59:36;;;;;;;22.50;16.98;;;7.90;92.20;;;;;;6190215;23;20072;-92
2021/10/10 04:02:17;;;;;;;20.75;16.45;;;7.90;92.30;;;;;;6185469;23;20005;-91
2021/10/10 04:04:43;;;;;;;22.85;15.93;;;7.90;92.30;;;;;;6212155;23;20012;-92
2021/10/10 04:07:25;;;;;;;23.40;15.80;;;7.90;92.30;;;;;;6210790;23;20005;-94
2021/10/10 04:10:04;;;;;;;22.83;15.77;;;7.90;92.30;;;;;;6211768;23;20013;-91
2021/10/10 04:12:33;;;;;;;19.20;15.10;;;7.90;92.40;;;;;;6213523;23;20046;-94
2021/10/10 04:15:01;;;;;;;22.30;15.25;;;7.80;92.30;;;;;;6211015;23;20020;-92
2021/10/10 04:17:46;;;;;;;20.63;16.38;;;7.90;92.40;;;;;;6210712;23;20031;-91
2021/10/10 04:20:25;;;;;;;;;;;;;;;;;;;;;
2021/10/10 04:22:53;;;;;;;23.42;18.30;;;7.90;92.50;;;;;;6238354;23;20024;-92
2021/10/10 04:25:21;;;;;;;22.98;17.02;;;7.90;92.60;;;;;;6212661;23;20085;-91
2021/10/10 04:27:53;;;;;;;27.65;17.95;;;7.90;92.70;;;;;;6212975;23;20036;-93
2021/10/10 04:30:21;;;;;;;;;;;7.90;92.70;;;;;;6214197;23;20043;-92
2021/10/10 04:32:47;;;;;;;26.77;18.13;;;7.90;92.70;;;;;;6189185;23;19931;-93
2021/10/10 04:35:18;;;;;;;30.20;19.58;;;7.90;92.70;;;;;;6214433;23;20015;-91
2021/10/10 04:37:47;;;;;;;36.03;20.58;;;7.90;92.70;;;;;;6216929;23;20005;-90
2021/10/10 04:40:31;;;;;;;39.00;21.40;;;7.90;92.80;;;;;;6192645;23;20001;-90
2021/10/10 04:42:59;;;;;;;32.17;20.95;;;7.90;92.90;;;;;;6195496;23;19993;-93
2021/10/10 04:45:30;;;;;;;29.10;21.20;;;7.90;93.00;;;;;;6217201;23;20001;-92
2021/10/10 04:48:01;;;;;;;30.58;19.95;;;7.80;93.00;;;;;;6216652;23;20009;-90
2021/10/10 04:50:36;;;;;;;28.88;20.42;;;7.80;93.10;;;;;;6214409;23;20023;-94
2021/10/10 04:53:04;;;;;;;29.73;20.35;;;7.90;93.10;;;;;;6214397;23;20005;-91
2021/10/10 04:55:30;;;;;;;31.35;20.73;;;7.90;93.10;;;;;;6189155;23;20001;-92
2021/10/10 04:58:01;;;;;;;26.80;18.85;;;7.90;93.20;;;;;;6212427;23;19996;-90
2021/10/10 05:00:29;;;;;;;28.10;17.35;;;7.90;93.20;;;;;;6187657;23;20005;-90
2021/10/10 05:03:22;;;;;;;29.17;18.08;;;7.90;93.20;;;;;;6212366;23;20005;-92
2021/10/10 05:05:51;;;;;;;26.40;18.42;;;7.90;93.30;;;;;;6211924;23;20000;-90
2021/10/10 05:08:24;;;;;;;31.48;19.05;;;7.90;93.30;;;;;;6185971;23;20101;-91
2021/10/10 05:10:58;;;;;;;27.45;18.58;;;7.90;93.50;;;;;;6211615;23;20008;-90
2021/10/10 05:13:37;;;;;;;25.25;18.08;;;7.90;93.50;;;;;;6237450;23;20032;-93
2021/10/10 05:16:13;;;;;;;24.65;17.90;;;7.90;93.60;;;;;;6236807;23;19996;-91
2021/10/10 05:18:42;;;;;;;28.00;17.67;;;7.90;93.70;;;;;;6161123;23;20072;-92
2021/10/10 05:21:18;;;;;;;30.13;16.90;;;7.90;93.80;;;;;;6209222;23;20017;-91
2021/10/10 05:23:50;;;;;;;21.23;17.20;;;7.90;94.00;;;;;;6187407;23;20016;-91
2021/10/10 05:26:24;;;;;;;;;;;7.90;94.00;;;;;;6214188;23;20032;-92
2021/10/10 05:28:54;;;;;;;19.38;17.35;;;7.90;94.00;;;;;;6216033;23;19907;-91
2021/10/10 05:34:29;;;;;;;22.38;16.67;;;7.90;94.00;;;;;;6239095;23;19997;-92
2021/10/10 05:36:55;;;;;;;22.30;16.13;;;8.00;94.10;;;;;;6163189;23;20005;-91
2021/10/10 05:39:37;;;;;;;;;;;;;;;;;;;;;
2021/10/10 05:42:11;;;;;;;21.00;16.17;;;8.00;94.10;;;;;;6202591;23;20004;-91
2021/10/10 05:44:50;;;;;;;20.40;15.95;;;8.00;94.10;;;;;;6178480;23;20005;-91
2021/10/10 05:47:16;;;;;;;25.92;16.67;;;8.00;94.10;;;;;;6180690;23;20016;-92
2021/10/10 05:49:46;;;;;;;26.05;15.35;;;8.00;94.20;;;;;;6204678;23;20013;-92
2021/10/10 05:52:27;;;;;;;28.87;16.40;;;8.00;94.20;;;;;;6177419;23;20009;-91
2021/10/10 05:55:11;;;;;;;;;;;;;;;;;;;;;
2021/10/10 05:57:49;;;;;;;21.40;15.73;;;8.00;94.30;;;;;;6171002;23;20028;-90
2021/10/10 06:00:35;;;;;;;21.67;16.30;;;8.00;94.30;;;;;;6179346;23;20053;-92
2021/10/10 06:03:11;;;;;;;20.63;14.95;;;8.00;94.40;;;;;;6184677;23;20024;-92
2021/10/10 06:05:54;;;;;;;24.60;15.40;;;8.00;94.40;;;;;;6180263;23;20005;-91
2021/10/10 06:08:23;;;;;;;19.95;14.77;;;8.00;94.40;;;;;;6179317;23;20031;-91
2021/10/10 06:11:07;;;;;;;;;;;;;;;;;;;;;
2021/10/10 06:13:40;;;;;;;19.00;15.02;;;8.10;94.50;;;;;;6210747;23;20008;-90
2021/10/10 06:16:23;;;;;;;17.85;14.98;;;8.00;94.40;;;;;;6186420;23;20020;-89
2021/10/10 06:18:49;;;;;;;15.63;14.02;;;8.00;94.40;;;;;;6212017;23;20009;-91
2021/10/10 06:21:22;;;;;;;21.48;14.07;;;8.00;94.40;;;;;;6211684;23;20005;-90
2021/10/10 06:23:57;;;;;;;15.95;14.00;;;8.00;94.40;;;;;;6210798;23;20024;-92
2021/10/10 06:26:34;;;;;;;16.85;13.63;;;8.00;94.40;;;;;;6207535;23;20009;-91
2021/10/10 06:29:18;;;;;;;;;;;;;;;;;;;;;
2021/10/10 06:31:51;;;;;;;16.35;13.70;;;8.00;94.40;;;;;;6197192;23;20039;-91
2021/10/10 06:34:30;;;;;;;19.33;13.85;;;8.00;94.40;;;;;;6176466;23;20005;-91
2021/10/10 06:37:02;;;;;;;16.17;13.15;;;8.00;94.40;;;;;;6171461;23;20016;-92
2021/10/10 06:39:33;;;;;;;17.63;13.38;;;8.10;94.50;;;;;;6175606;23;20000;-91
2021/10/10 06:42:08;;;;;;;14.38;12.68;;;8.10;94.40;;;;;;6180372;23;20093;-92
2021/10/10 06:44:38;;;;;;;18.02;12.80;;;8.10;94.40;;;;;;6205812;23;20001;-91
2021/10/10 06:47:04;;;;;;;15.07;13.65;;;8.10;94.40;;;;;;6202071;23;20005;-91
2021/10/10 06:49:32;;;;;;;14.15;12.60;;;8.10;94.40;;;;;;6203052;23;20064;-91
2021/10/10 06:52:08;;;;;;;17.13;12.85;;;8.10;94.30;;;;;;6206231;23;20001;-92
2021/10/10 06:54:49;;;;;;;;;;;;;;;;;;;;;
2021/10/10 06:57:20;;;;;;;15.25;13.20;;;8.20;94.30;;;;;;6210294;23;20009;-90
2021/10/10 06:59:49;;;;;;;15.50;13.05;;;8.20;94.30;;;;;;6210434;23;20013;-92
2021/10/10 07:02:27;;;;;;;15.35;13.85;;;8.20;94.30;;;;;;6185090;23;20016;-94
2021/10/10 07:04:54;;;;;;;15.73;14.07;;;8.20;94.30;;;;;;6187714;23;20032;-92
2021/10/10 07:07:24;;;;;;;15.18;13.00;;;8.20;94.30;;;;;;6210846;23;20024;-93
2021/10/10 07:10:02;;;;;;;;;;;;;;;;;;;;;
2021/10/10 07:12:28;;;;;;;14.40;13.00;;;8.30;94.30;;;;;;6212055;23;19993;-94
2021/10/10 07:14:54;;;;;;;13.07;11.88;;;8.30;94.30;;;;;;6210861;23;19989;-94
2021/10/10 07:17:26;;;;;;;13.38;12.07;;;8.40;94.40;;;;;;6208640;23;20506;-93
2021/10/10 07:22:28;;;;;;;;;;;8.50;94.40;;;;;;6210206;23;20069;-93
2021/10/10 07:27:39;;;;;;;16.65;14.95;;;8.60;94.40;;;;;;6211008;23;20007;-91
2021/10/10 07:30:06;;;;;;;16.67;14.88;;;8.60;94.30;;;;;;6209353;23;20036;-92
2021/10/10 07:32:43;;;;;;;17.20;15.48;;;8.70;94.30;;;;;;6209288;23;20005;-92
2021/10/10 07:35:17;;;;;;;17.42;15.30;;;8.80;94.40;;;;;;6208340;23;20003;-94
2021/10/10 07:37:59;;;;;;;17.50;15.48;;;8.80;94.40;;;;;;6178889;23;20010;-92
2021/10/10 07:40:43;;;;;;;;;;;;;;;;;;;;;
2021/10/10 07:43:49;;;;;;;18.88;15.70;;;8.90;94.30;;;;;;6177437;23;20002;-92
2021/10/10 07:46:43;;;;;;;15.65;14.05;;;9.00;94.40;;;;;;6176812;23;20009;-93
2021/10/10 07:50:23;;;;;;;17.98;15.70;;;9.10;94.40;;;;;;6168721;23;20016;-92
2021/10/10 07:57:12;;;;;;;;;;;;;;;;;;;;;
2021/10/10 08:00:11;;;;;;;;;;;;;;;;;;;;;
2021/10/10 08:03:36;;;;;;;;;;;;;;;;;;;;;
2021/10/10 08:06:24;;;;;;;;;;;;;;;;;;;;;
2021/10/10 08:12:46;;;;;;;;;;;;;;;;;;;;;
2021/10/10 08:15:51;;;;;;;;;;;;;;;;;;;;;
2021/10/10 08:18:41;;;;;;;;;;;;;;;;;;;;;
2021/10/10 08:22:07;;;;;;;;;;;;;;;;;;;;;
2021/10/10 08:31:51;;;;;;;23.95;19.95;;;10.30;94.20;;;;;;6110039;23;20015;-92
2021/10/10 08:37:50;;;;;;;23.35;19.33;;;10.50;94.20;;;;;;6138476;23;20002;-92
2021/10/10 08:40:43;;;;;;;23.27;18.98;;;10.60;94.20;;;;;;6196991;23;19986;-91
2021/10/10 08:43:42;;;;;;;22.33;19.65;;;10.60;94.10;;;;;;6207958;23;20438;-92
2021/10/10 08:46:46;;;;;;;28.48;23.65;;;10.70;94.10;;;;;;6176046;23;20005;-92
2021/10/10 08:49:52;;;;;;;;;;;;;;;;;;;;;
2021/10/10 08:53:00;;;;;;;;;;;;;;;;;;;;;
2021/10/10 08:55:35;;;;;;;24.92;20.23;;;11.00;94.10;;;;;;6205772;23;20009;-93
2021/10/10 08:58:39;;;;;;;24.02;19.98;;;11.10;94.20;;;;;;6207984;23;20013;-90
2021/10/10 09:02:01;;;;;;;;;;;;;;;;;;;;;
2021/10/10 09:04:58;;;;;;;;;;;;;;;;;;;;;
2021/10/10 09:08:04;;;;;;;26.17;22.25;;;11.40;94.10;;;;;;6206946;23;20001;-92
2021/10/10 09:10:43;;;;;;;;;;;;;;;;;;;;;
2021/10/10 09:13:58;;;;;;;;;;;;;;;;;;;;;
2021/10/10 09:17:06;;;;;;;;;;;;;;;;;;;;;
2021/10/10 09:19:47;;;;;;;33.58;25.35;;;11.80;94.10;;;;;;6184420;23;19997;-91
2021/10/10 09:25:26;;;;;;;35.35;28.80;;;11.90;94.00;;;;;;6145140;23;20009;-92
2021/10/10 09:28:17;;;;;;;39.08;30.55;;;11.90;93.90;;;;;;6185529;23;20001;-92
2021/10/10 09:31:00;;;;;;;33.92;27.75;;;11.90;93.90;;;;;;6209206;23;20037;-91
2021/10/10 09:34:02;;;;;;;;;;;;;;;;;;;;;
2021/10/10 09:47:04;;;;;;;;;;;12.20;93.70;;;;;;6080399;23;20011;-90
2021/10/10 09:49:57;;;;;;;;;;;;;;;;;;;;;
2021/10/10 09:53:02;;;;;;;;;;;;;;;;;;;;;
2021/10/10 09:56:06;;;;;;;;;;;;;;;;;;;;;
2021/10/10 09:59:16;;;;;;;;;;;;;;;;;;;;;
2021/10/10 10:05:56;;;;;;;30.92;24.80;;;12.60;93.40;;;;;;6226383;23;20005;-90
2021/10/10 10:09:04;;;;;;;32.67;26.35;;;12.70;93.40;;;;;;6214250;23;20001;-91
2021/10/10 10:15:45;;;;;;;32.08;26.50;;;12.70;93.30;;;;;;6185035;23;20005;-90
2021/10/10 10:18:25;;;;;;;29.55;25.52;;;12.80;93.30;;;;;;6233626;23;19993;-92
2021/10/10 10:20:53;;;;;;;34.67;26.55;;;12.80;93.30;;;;;;6214755;23;20021;-94
2021/10/10 10:27:11;;;;;;;;;;;;;;;;;;;;;
2021/10/10 10:29:50;;;;;;;29.48;24.08;;;13.00;93.30;;;;;;6228820;23;20060;-89
2021/10/10 10:36:08;;;;;;;30.42;24.25;;;13.20;93.10;;;;;;6213948;23;20009;-92
2021/10/10 10:39:29;;;;;;;28.88;23.85;;;13.30;93.10;;;;;;6150379;23;20002;-93
2021/10/10 10:48:59;;;;;;;;;;;;;;;;;;;;;
2021/10/10 10:55:26;;;;;;;32.55;24.90;;;13.70;92.70;;;;;;6088976;23;20007;-92
2021/10/10 10:58:15;;;;;;;26.15;21.75;;;13.70;92.70;;;;;;6088818;23;20648;-91
2021/10/10 11:01:29;;;;;;;29.40;22.30;;;13.90;92.70;;;;;;6082189;23;20097;-94
2021/10/10 11:11:45;;;;;;;27.83;21.30;;;14.10;92.50;;;;;;6201777;22;20020;-93
2021/10/10 11:14:27;;;;;;;28.65;22.45;;;14.10;92.50;;;;;;6170447;22;20024;-95
2021/10/10 11:17:20;;;;;;;24.50;20.77;;;14.20;92.50;;;;;;6212394;23;20005;-93
2021/10/10 11:26:12;;;;;;;33.63;25.05;;;14.40;92.50;;;;;;6167413;22;20045;-90
2021/10/10 11:29:07;;;;;;;27.92;23.00;;;14.50;92.40;;;;;;6249321;22;20030;-92
2021/10/10 11:31:44;;;;;;;28.75;22.85;;;14.50;92.40;;;;;;6249721;23;20063;-94
2021/10/10 11:34:17;;;;;;;26.33;21.88;;;14.60;92.40;;;;;;6180590;23;20009;-95
2021/10/10 11:37:09;;;;;;;30.40;22.88;;;14.60;92.30;;;;;;6213129;23;20047;-94
2021/10/10 11:39:46;;;;;;;31.45;22.13;;;14.70;92.30;;;;;;6187307;23;20035;-93
2021/10/10 11:42:20;;;;;;;26.65;23.17;;;14.70;92.20;;;;;;6187517;23;20016;-92
2021/10/10 11:44:53;;;;;;;26.48;22.30;;;14.80;92.10;;;;;;6207558;23;20024;-95
2021/10/10 11:47:33;;;;;;;25.98;22.48;;;14.90;92.00;;;;;;6184416;23;20040;-94
2021/10/10 11:50:47;;;;;;;;;;;;;;;;;;;;;
2021/10/10 11:57:20;;;;;;;26.80;21.65;;;15.00;91.80;;;;;;6142099;23;20010;-94
2021/10/10 12:00:25;;;;;;;27.60;20.35;;;15.10;91.70;;;;;;6120489;23;20026;-94
2021/10/10 12:03:14;;;;;;;26.25;20.52;;;15.10;91.60;;;;;;6209888;23;20001;-95
2021/10/10 12:05:53;;;;;;;27.70;21.77;;;15.20;91.50;;;;;;6208605;23;20012;-94
2021/10/10 12:12:54;;;;;;;31.92;23.10;;;15.30;91.10;;;;;;6205299;23;20071;-92
2021/10/10 12:15:03;;;;;;;27.50;21.73;;;15.40;91.10;;;;;;6191985;23;20085;-94
2021/10/10 12:18:03;;;;;;;;;;;;;;;;;;;;;
2021/10/10 12:21:14;;;;;;;26.08;21.52;;;15.40;90.70;;;;;;6206855;23;20012;-93
2021/10/10 12:23:40;;;;;;;26.15;19.88;;;15.50;90.60;;;;;;6155629;23;20025;-93
2021/10/10 12:26:42;;;;;;;26.80;21.05;;;15.60;90.70;;;;;;6173235;23;20009;-94
2021/10/10 12:37:17;;;;;;;;;;;;;;;;;;;;;
2021/10/10 12:40:12;;;;;;;27.67;22.35;;;15.80;90.70;;;;;;6103833;23;20106;-93
2021/10/10 12:46:27;;;;;;;;;;;;;;;;;;;;;
2021/10/10 12:49:41;;;;;;;29.05;21.95;;;15.90;90.60;;;;;;6108195;23;20049;-93
2021/10/10 12:52:48;;;;;;;;;;;;;;;;;;;;;
2021/10/10 12:55:37;;;;;;;30.65;22.70;;;16.00;90.50;;;;;;6173061;23;20000;-93
2021/10/10 13:01:06;;;;;;;32.15;23.55;;;16.00;90.40;;;;;;6123256;23;20017;-95
2021/10/10 13:10:06;;;;;;;31.90;23.92;;;16.10;90.10;;;;;;6186422;22;20107;-93
2021/10/10 13:13:08;;;;;;;32.40;25.23;;;16.10;89.60;;;;;;6208298;23;20012;-93
2021/10/10 13:16:08;;;;;;;31.65;24.83;;;16.10;88.40;;;;;;6229751;23;20004;-94
2021/10/10 13:22:37;;;;;;;;;;;;;;;;;;;;;
2021/10/10 13:25:15;;;;;;;32.42;25.38;;;16.10;88.00;;;;;;6274055;22;20000;-93
2021/10/10 13:28:23;;;;;;;;;;;;;;;;;;;;;
2021/10/10 13:39:12;;;;;;;;;;;;;;;;;;;;;
2021/10/10 13:48:45;;;;;;;;;;;;;;;;;;;;;
2021/10/10 13:58:23;;;;;;;35.92;27.65;;;16.20;87.70;;;;;;6230276;23;20013;-94
2021/10/10 14:01:16;;;;;;;38.88;29.10;;;16.20;88.10;;;;;;6169742;23;20005;-93
2021/10/10 14:04:44;;;;;;;;;;;;;;;;;;;;;
2021/10/10 14:07:19;;;;;;;35.78;28.13;;;16.30;88.00;;;;;;6184070;23;20035;-94
2021/10/10 14:10:20;;;;;;;31.90;27.00;;;16.30;88.00;;;;;;6198611;23;20088;-94
2021/10/10 14:16:38;;;;;;;;;;;;;;;;;;;;;
2021/10/10 14:19:32;;;;;;;39.97;31.05;;;16.30;88.00;;;;;;6223467;23;20071;-94
2021/10/10 14:22:00;;;;;;;32.70;26.80;;;16.30;87.60;;;;;;6207111;23;20012;-94
2021/10/10 14:24:49;;;;;;;35.17;28.38;;;16.30;87.60;;;;;;6202291;23;20486;-92
2021/10/10 14:27:18;;;;;;;34.70;27.85;;;16.30;88.20;;;;;;6199892;23;20032;-92
2021/10/10 14:29:49;;;;;;;37.40;28.38;;;16.40;87.80;;;;;;6201156;23;20019;-95
2021/10/10 14:35:58;;;;;;;35.28;28.13;;;16.30;85.80;;;;;;6207958;23;20005;-93
2021/10/10 14:38:39;;;;;;;36.22;28.63;;;16.40;85.60;;;;;;6180820;23;20008;-94
2021/10/10 14:48:17;;;;;;;29.30;22.15;;;16.30;85.50;;;;;;6103477;23;20018;-94
2021/10/10 14:51:03;;;;;;;27.30;22.80;;;16.30;85.20;;;;;;6085582;23;20020;-92
2021/10/10 14:56:51;;;;;;;29.70;24.05;;;16.30;84.20;;;;;;6102414;23;20413;-92
2021/10/10 15:03:26;;;;;;;30.40;23.33;;;16.30;85.70;;;;;;6182584;23;20044;-92
2021/10/10 15:10:07;;;;;;;;;;;;;;;;;;;;;
2021/10/10 15:12:50;;;;;;;29.95;22.05;;;16.30;85.80;;;;;;6234186;23;20001;-93
2021/10/10 15:15:59;;;;;;;;;;;;;;;;;;;;;
2021/10/10 15:18:27;;;;;;;26.13;21.52;;;16.20;87.00;;;;;;6234312;23;20020;-93
2021/10/10 15:26:11;;;;;;;26.77;21.95;;;16.10;87.10;;;;;;6221359;22;20032;-93
2021/10/10 15:28:50;;;;;;;;;;;;;;;;;;;;;
2021/10/10 15:31:33;;;;;;;26.67;21.25;;;16.00;86.90;;;;;;6262888;23;20005;-94
2021/10/10 15:34:06;;;;;;;25.35;20.92;;;16.00;86.70;;;;;;6190214;23;20114;-94
2021/10/10 15:36:47;;;;;;;25.75;20.83;;;16.00;86.80;;;;;;6236899;23;20011;-93
2021/10/10 15:39:43;;;;;;;;;;;;;;;;;;;;;
2021/10/10 15:42:43;;;;;;;27.92;20.83;;;16.00;86.80;;;;;;6261514;23;20020;-94
2021/10/10 15:45:17;;;;;;;24.38;20.52;;;16.00;86.80;;;;;;6236637;23;20011;-93
2021/10/10 15:48:03;;;;;;;24.55;19.98;;;15.90;87.00;;;;;;6234075;23;20094;-93
2021/10/10 15:50:49;;;;;;;29.48;22.50;;;15.90;87.20;;;;;;6233627;23;20019;-93
2021/10/10 15:54:06;;;;;;;26.00;20.65;;;15.90;87.30;;;;;;6208860;23;20000;-94
2021/10/10 15:56:56;;;;;;;27.15;20.38;;;15.80;87.70;;;;;;6235002;23;20020;-94
2021/10/10 15:59:27;;;;;;;28.48;21.42;;;15.70;88.20;;;;;;6238022;23;20004;-93
2021/10/10 16:02:07;;;;;;;;;;;15.70;88.60;;;;;;6209918;23;20012;-93
2021/10/10 16:04:33;;;;;;;27.40;20.53;;;15.60;88.90;;;;;;6208648;23;19934;-93
2021/10/10 16:07:06;;;;;;;24.70;19.40;;;15.50;89.20;;;;;;6235822;23;19996;-93
2021/10/10 16:12:39;;;;;;;28.08;21.88;;;15.40;89.60;;;;;;6249990;23;20000;-93
2021/10/10 16:15:17;;;;;;;25.10;21.10;;;15.30;89.70;;;;;;6231651;23;20027;-93
2021/10/10 16:17:48;;;;;;;24.33;20.08;;;15.30;90.00;;;;;;6183512;23;20445;-95
2021/10/10 16:20:20;;;;;;;29.58;21.40;;;15.20;90.10;;;;;;6236135;23;20047;-93
2021/10/10 16:22:51;;;;;;;28.00;22.48;;;15.20;90.10;;;;;;6232880;23;20007;-93
2021/10/10 16:25:52;;;;;;;31.33;22.50;;;15.10;90.20;;;;;;6238674;23;20000;-95
2021/10/10 16:28:23;;;;;;;;;;;15.00;90.20;;;;;;6214925;23;20020;-94
2021/10/10 16:31:02;;;;;;;31.85;22.67;;;15.00;90.20;;;;;;6210005;23;19912;-93
2021/10/10 16:33:30;;;;;;;29.27;22.95;;;14.90;90.30;;;;;;6234295;23;20004;-94
2021/10/10 16:36:13;;;;;;;27.67;20.75;;;14.80;90.30;;;;;;6258584;23;20007;-92
2021/10/10 16:38:56;;;;;;;27.60;21.75;;;14.80;90.40;;;;;;6215950;23;20015;-93
2021/10/10 16:44:04;;;;;;;28.63;21.98;;;14.80;90.50;;;;;;6275758;22;20035;-93
2021/10/10 16:46:51;;;;;;;;;;;;;;;;;;;;;
2021/10/10 16:49:54;;;;;;;27.73;20.63;;;14.70;90.60;;;;;;6232315;22;20008;-92
2021/10/10 16:52:33;;;;;;;27.95;21.92;;;14.60;90.60;;;;;;6149690;23;20036;-93
2021/10/10 16:55:21;;;;;;;28.38;21.75;;;14.60;90.60;;;;;;6153226;23;19997;-93
2021/10/10 16:58:07;;;;;;;27.50;22.02;;;14.50;90.60;;;;;;6157875;23;20005;-94
2021/10/10 17:07:23;;;;;;;;;;;;;;;;;;;;;
2021/10/10 17:10:44;;;;;;;;;;;;;;;;;;;;;
2021/10/10 17:13:42;;;;;;;27.25;21.52;;;14.30;91.00;;;;;;6091158;23;19999;-92
2021/10/10 17:23:40;;;;;;;;;;;;;;;;;;;;;
2021/10/10 17:30:27;;;;;;;;;;;;;;;;;;;;;
2021/10/10 17:33:30;;;;;;;;;;;;;;;;;;;;;
2021/10/10 17:43:09;;;;;;;;;;;;;;;;;;;;;
2021/10/10 17:56:04;;;;;;;26.13;20.67;;;14.20;91.90;;;;;;6101631;23;20018;-91
2021/10/10 18:14:35;;;;;;;33.30;24.67;;;14.10;91.90;;;;;;6024420;23;20014;-93
2021/10/10 18:17:49;;;;;;;;;;;;;;;;;;;;;
2021/10/10 18:20:37;;;;;;;32.63;25.95;;;14.00;91.90;;;;;;6215551;23;20051;-93
2021/10/10 18:23:23;;;;;;;33.67;25.92;;;13.90;91.90;;;;;;6196918;23;20009;-94
2021/10/10 18:29:23;;;;;;;;;;;;;;;;;;;;;
2021/10/10 18:31:51;;;;;;;32.42;24.77;;;13.80;91.80;;;;;;6221273;23;20391;-93
2021/10/10 18:34:44;;;;;;;34.60;25.83;;;13.70;91.80;;;;;;6220349;23;20024;-92
2021/10/10 18:37:22;;;;;;;32.97;26.17;;;13.70;91.80;;;;;;6171595;23;20005;-93
2021/10/10 18:43:42;;;;;;;36.72;28.27;;;13.60;91.80;;;;;;6178608;23;20092;-93
2021/10/10 18:46:26;;;;;;;36.30;26.83;;;13.50;91.80;;;;;;6217487;23;20087;-94
2021/10/10 18:49:11;;;;;;;;;;;;;;;;;;;;;
2021/10/10 18:52:24;;;;;;;;;;;;;;;;;;;;;
2021/10/10 18:55:07;;;;;;;34.13;27.40;;;13.40;91.70;;;;;;6218910;23;20028;-93
2021/10/10 19:01:16;;;;;;;34.28;26.63;;;13.20;91.70;;;;;;6202546;23;20013;-94
2021/10/10 19:03:54;;;;;;;37.20;28.05;;;13.20;91.80;;;;;;6181071;23;20016;-94
2021/10/10 19:06:33;;;;;;;36.70;28.00;;;13.20;91.90;;;;;;6191614;23;20014;-92